createdAt,value
2022-08-26T00:01:52.949Z,24.76
2022-08-26T00:04:21.925Z,24.82
2022-08-26T00:06:50.893Z,24.79
2022-08-26T00:09:18.513Z,24.81
2022-08-26T00:11:47.278Z,24.82
2022-08-26T00:14:16.115Z,24.78
2022-08-26T00:16:48.226Z,24.72
2022-08-26T00:19:16.837Z,24.74
2022-08-26T00:21:44.460Z,24.69
2022-08-26T00:24:13.467Z,24.55
2022-08-26T00:26:41.693Z,24.54
2022-08-26T00:29:10.572Z,24.57
2022-08-26T00:31:38.373Z,24.57
2022-08-26T00:34:07.522Z,24.47
2022-08-26T00:36:37.604Z,24.43
2022-08-26T00:39:08.008Z,24.46
2022-08-26T00:41:38.516Z,24.42
2022-08-26T00:44:06.838Z,24.39
2022-08-26T00:46:36.550Z,24.28
2022-08-26T00:49:11.915Z,24.28
2022-08-26T00:51:47.042Z,24.37
2022-08-26T00:54:16.024Z,24.41
2022-08-26T00:56:52.927Z,24.42
2022-08-26T00:59:21.371Z,24.42
2022-08-26T01:01:49.507Z,24.45
2022-08-26T01:04:21.246Z,24.29
2022-08-26T01:06:51.523Z,24.38
2022-08-26T01:09:20.926Z,24.28
2022-08-26T01:11:54.353Z,24.30
2022-08-26T01:14:23.501Z,24.15
2022-08-26T01:16:51.274Z,24.12
2022-08-26T01:19:24.327Z,24.18
2022-08-26T01:21:58.079Z,24.10
2022-08-26T01:24:29.766Z,23.99
2022-08-26T01:27:01.516Z,23.95
2022-08-26T01:29:30.861Z,23.85
2022-08-26T01:31:59.257Z,23.65
2022-08-26T01:34:29.850Z,23.65
2022-08-26T01:37:05.530Z,23.49
2022-08-26T01:39:36.674Z,23.57
2022-08-26T01:42:10.361Z,23.56
2022-08-26T01:44:44.926Z,23.41
2022-08-26T01:47:15.461Z,23.22
2022-08-26T01:49:45.564Z,23.35
2022-08-26T01:54:42.486Z,23.53
2022-08-26T01:57:15.422Z,23.57
2022-08-26T01:59:43.458Z,23.54
2022-08-26T02:02:11.251Z,23.44
2022-08-26T02:04:44.288Z,23.52
2022-08-26T02:07:12.427Z,23.53
2022-08-26T02:09:42.515Z,23.52
2022-08-26T02:12:13.071Z,23.61
2022-08-26T02:14:44.457Z,23.76
2022-08-26T02:17:12.579Z,23.60
2022-08-26T02:19:42.697Z,23.66
2022-08-26T02:22:16.092Z,23.75
2022-08-26T02:24:50.308Z,23.81
2022-08-26T02:27:20.324Z,23.77
2022-08-26T02:29:53.141Z,23.70
2022-08-26T02:32:20.716Z,23.65
2022-08-26T02:34:48.262Z,23.66
2022-08-26T02:37:17.728Z,23.61
2022-08-26T02:39:45.741Z,23.59
2022-08-26T02:42:16.958Z,23.62
2022-08-26T02:44:44.508Z,23.64
2022-08-26T02:47:14.635Z,23.74
2022-08-26T02:49:44.254Z,23.91
2022-08-26T02:52:12.677Z,23.82
2022-08-26T02:54:40.270Z,23.74
2022-08-26T02:57:07.814Z,23.71
2022-08-26T03:02:07.173Z,23.66
2022-08-26T03:04:35.931Z,23.65
2022-08-26T03:07:03.540Z,23.64
2022-08-26T03:09:31.115Z,23.43
2022-08-26T03:11:59.186Z,23.54
2022-08-26T03:14:28.113Z,23.44
2022-08-26T03:16:58.627Z,23.46
2022-08-26T03:19:27.077Z,23.49
2022-08-26T03:21:57.834Z,23.32
2022-08-26T03:24:26.261Z,23.41
2022-08-26T03:26:53.825Z,23.37
2022-08-26T03:29:39.643Z,23.19
2022-08-26T03:32:08.758Z,23.15
2022-08-26T03:34:37.123Z,23.26
2022-08-26T03:37:06.376Z,23.18
2022-08-26T03:39:33.980Z,23.10
2022-08-26T03:42:01.869Z,22.97
2022-08-26T03:44:29.419Z,23.04
2022-08-26T03:46:56.948Z,23.03
2022-08-26T03:49:25.846Z,23.13
2022-08-26T03:51:56.587Z,23.09
2022-08-26T03:54:24.479Z,22.97
2022-08-26T03:56:52.023Z,22.95
2022-08-26T03:59:20.894Z,22.87
2022-08-26T04:01:48.528Z,22.90
2022-08-26T04:04:16.999Z,22.93
2022-08-26T04:06:45.909Z,22.92
2022-08-26T04:09:15.788Z,22.76
2022-08-26T04:11:45.088Z,22.74
2022-08-26T04:14:20.230Z,22.82
2022-08-26T04:16:48.306Z,22.91
2022-08-26T04:19:16.916Z,22.75
2022-08-26T04:21:47.217Z,22.82
2022-08-26T04:24:17.830Z,22.72
2022-08-26T04:26:45.491Z,22.62
2022-08-26T04:29:15.715Z,22.69
2022-08-26T04:31:43.476Z,22.67
2022-08-26T04:34:11.235Z,22.71
2022-08-26T04:36:42.977Z,22.61
2022-08-26T04:39:16.499Z,22.69
2022-08-26T04:41:45.243Z,22.82
2022-08-26T04:44:13.663Z,22.79
2022-08-26T04:46:43.760Z,22.88
2022-08-26T04:49:12.476Z,22.96
2022-08-26T04:51:40.955Z,23.02
2022-08-26T04:54:08.741Z,22.90
2022-08-26T04:56:40.279Z,22.90
2022-08-26T04:59:16.788Z,22.90
2022-08-26T05:01:45.533Z,22.98
2022-08-26T05:04:16.198Z,22.97
2022-08-26T05:06:46.745Z,22.77
2022-08-26T05:09:14.467Z,22.91
2022-08-26T05:11:45.570Z,22.86
2022-08-26T05:14:16.839Z,22.97
2022-08-26T05:16:44.520Z,23.03
2022-08-26T05:19:18.755Z,23.06
2022-08-26T05:21:47.694Z,23.23
2022-08-26T05:24:15.470Z,23.22
2022-08-26T05:26:44.813Z,23.24
2022-08-26T05:29:12.621Z,23.20
2022-08-26T05:31:40.309Z,23.27
2022-08-26T05:34:08.587Z,23.21
2022-08-26T05:36:37.847Z,23.29
2022-08-26T05:39:07.015Z,23.38
2022-08-26T05:41:38.580Z,23.28
2022-08-26T05:44:10.282Z,23.29
2022-08-26T05:46:39.057Z,23.34
2022-08-26T05:49:12.561Z,23.45
2022-08-26T05:51:41.274Z,23.54
2022-08-26T05:54:10.345Z,23.47
2022-08-26T05:56:38.631Z,23.37
2022-08-26T05:59:14.617Z,23.30
2022-08-26T06:01:43.381Z,23.43
2022-08-26T06:04:11.665Z,23.39
2022-08-26T06:06:41.265Z,23.27
2022-08-26T06:09:11.072Z,23.32
2022-08-26T06:11:40.189Z,23.43
2022-08-26T06:14:09.801Z,23.41
2022-08-26T06:16:40.814Z,23.56
2022-08-26T06:19:11.499Z,23.63
2022-08-26T06:21:41.203Z,23.68
2022-08-26T06:24:29.310Z,23.64
2022-08-26T06:27:01.382Z,23.72
2022-08-26T06:29:33.029Z,23.70
2022-08-26T06:32:02.559Z,23.77
2022-08-26T06:34:31.023Z,23.89
2022-08-26T06:37:01.420Z,23.92
2022-08-26T06:39:31.297Z,23.85
2022-08-26T06:41:59.201Z,23.89
2022-08-26T06:44:27.193Z,23.96
2022-08-26T06:46:56.157Z,24.03
2022-08-26T06:49:27.222Z,24.03
2022-08-26T06:51:57.900Z,23.95
2022-08-26T06:54:26.388Z,24.07
2022-08-26T06:56:55.817Z,24.13
2022-08-26T06:59:23.945Z,24.23
2022-08-26T07:01:52.238Z,24.17
2022-08-26T07:04:23.366Z,24.27
2022-08-26T07:06:53.493Z,24.43
2022-08-26T07:09:22.691Z,24.51
2022-08-26T07:11:51.133Z,24.51
2022-08-26T07:14:19.302Z,24.42
2022-08-26T07:16:49.340Z,24.43
2022-08-26T07:19:30.281Z,24.40
2022-08-26T07:22:01.665Z,24.48
2022-08-26T07:24:30.058Z,24.49
2022-08-26T07:27:00.517Z,24.57
2022-08-26T07:29:29.159Z,24.44
2022-08-26T07:31:56.904Z,24.65
2022-08-26T07:34:25.303Z,24.48
2022-08-26T07:36:53.981Z,24.57
2022-08-26T07:39:28.227Z,24.52
2022-08-26T07:41:59.243Z,24.71
2022-08-26T07:44:28.046Z,24.51
2022-08-26T07:46:55.641Z,24.50
2022-08-26T07:49:26.741Z,24.45
2022-08-26T07:51:56.330Z,24.66
2022-08-26T07:54:26.779Z,24.73
2022-08-26T07:56:56.642Z,24.85
2022-08-26T07:59:24.629Z,24.81
2022-08-26T08:01:52.383Z,24.92
2022-08-26T08:04:25.597Z,24.91
2022-08-26T08:06:54.452Z,24.89
2022-08-26T08:09:22.681Z,25.00
2022-08-26T08:11:51.288Z,25.00
2022-08-26T08:14:22.096Z,25.05
2022-08-26T08:16:51.000Z,24.72
2022-08-26T08:19:22.984Z,24.87
2022-08-26T08:21:51.724Z,24.98
2022-08-26T08:24:19.850Z,24.90
2022-08-26T08:26:48.109Z,24.81
2022-08-26T08:29:15.707Z,24.78
2022-08-26T08:31:56.548Z,24.83
2022-08-26T08:34:26.446Z,24.78
2022-08-26T08:36:54.391Z,24.93
2022-08-26T08:39:26.216Z,24.97
2022-08-26T08:42:06.467Z,25.03
2022-08-26T08:44:37.836Z,25.08
2022-08-26T08:47:21.312Z,25.12
2022-08-26T08:49:49.010Z,25.02
2022-08-26T08:52:28.388Z,25.09
2022-08-26T08:54:56.843Z,25.23
2022-08-26T08:57:32.849Z,25.13
2022-08-26T09:00:09.228Z,25.24
2022-08-26T09:02:48.535Z,25.22
2022-08-26T09:05:22.638Z,25.00
2022-08-26T09:07:57.165Z,25.09
2022-08-26T09:10:31.456Z,25.26
2022-08-26T09:13:00.422Z,25.35
2022-08-26T09:15:36.718Z,25.31
2022-08-26T09:18:17.247Z,25.39
2022-08-26T09:20:50.531Z,25.46
2022-08-26T09:23:18.323Z,25.48
2022-08-26T09:25:48.554Z,25.43
2022-08-26T09:28:18.624Z,25.48
2022-08-26T09:30:47.471Z,25.60
2022-08-26T09:33:19.580Z,25.67
2022-08-26T09:35:48.837Z,25.70
2022-08-26T09:38:26.764Z,25.84
2022-08-26T09:40:59.279Z,26.01
2022-08-26T09:43:28.435Z,26.05
2022-08-26T09:46:13.231Z,26.18
2022-08-26T09:48:43.456Z,26.36
2022-08-26T09:51:28.439Z,26.16
2022-08-26T09:53:58.333Z,26.11
2022-08-26T09:56:28.319Z,26.37
2022-08-26T09:58:57.344Z,26.71
2022-08-26T10:01:32.196Z,26.92
2022-08-26T10:04:10.988Z,26.74
2022-08-26T10:06:42.237Z,26.52
2022-08-26T10:09:14.369Z,26.36
2022-08-26T10:11:47.898Z,26.40
2022-08-26T10:14:24.283Z,26.12
2022-08-26T10:17:00.450Z,26.47
2022-08-26T10:19:41.748Z,26.39
2022-08-26T10:22:26.730Z,26.39
2022-08-26T10:24:59.738Z,26.33
2022-08-26T10:27:35.499Z,26.25
2022-08-26T10:30:07.495Z,26.25
2022-08-26T10:32:41.445Z,26.49
2022-08-26T10:35:14.053Z,26.53
2022-08-26T10:37:47.946Z,26.59
2022-08-26T10:40:21.303Z,26.50
2022-08-26T10:42:56.745Z,26.66
2022-08-26T10:45:27.889Z,26.65
2022-08-26T10:48:01.227Z,26.45
2022-08-26T10:50:33.768Z,26.58
2022-08-26T10:53:08.779Z,26.75
2022-08-26T10:55:43.166Z,26.61
2022-08-26T10:58:29.325Z,26.41
2022-08-26T11:01:23.277Z,26.54
2022-08-26T11:03:58.780Z,26.56
2022-08-26T11:06:31.242Z,26.75
2022-08-26T11:09:01.065Z,26.71
2022-08-26T11:11:45.283Z,26.65
2022-08-26T11:14:41.090Z,26.67
2022-08-26T11:17:56.538Z,26.58
2022-08-26T11:20:35.110Z,26.01
2022-08-26T11:23:50.831Z,26.32
2022-08-26T11:26:43.156Z,26.42
2022-08-26T11:29:13.205Z,26.43
2022-08-26T11:31:56.145Z,26.22
2022-08-26T11:34:56.534Z,26.34
2022-08-26T11:37:32.381Z,26.55
2022-08-26T11:40:03.980Z,26.71
2022-08-26T11:42:39.391Z,26.49
2022-08-26T11:45:18.100Z,26.37
2022-08-26T11:47:46.815Z,26.31
2022-08-26T11:50:20.996Z,26.41
2022-08-26T11:52:53.574Z,26.41
2022-08-26T11:55:23.404Z,26.46
2022-08-26T11:57:54.257Z,26.31
2022-08-26T12:00:23.537Z,26.35
2022-08-26T12:02:52.483Z,26.43
2022-08-26T12:05:24.933Z,26.39
2022-08-26T12:07:55.121Z,26.50
2022-08-26T12:10:30.779Z,26.64
2022-08-26T12:13:00.549Z,26.56
2022-08-26T12:15:29.852Z,26.68
2022-08-26T12:17:59.245Z,26.64
2022-08-26T12:20:45.782Z,26.65
2022-08-26T12:23:25.321Z,26.56
2022-08-26T12:26:06.751Z,26.69
2022-08-26T12:28:35.087Z,26.75
2022-08-26T12:31:04.970Z,26.69
2022-08-26T12:33:35.915Z,26.71
2022-08-26T12:36:04.830Z,26.85
2022-08-26T12:38:36.756Z,26.69
2022-08-26T12:41:05.785Z,26.77
2022-08-26T12:43:43.011Z,26.72
2022-08-26T12:46:13.765Z,26.73
2022-08-26T12:48:44.699Z,26.69
2022-08-26T12:51:28.892Z,26.57
2022-08-26T12:53:57.491Z,26.54
2022-08-26T12:56:34.944Z,26.38
2022-08-26T12:59:11.196Z,26.52
2022-08-26T13:01:44.030Z,26.57
2022-08-26T13:04:38.609Z,26.49
2022-08-26T13:07:21.845Z,26.45
2022-08-26T13:09:51.145Z,26.36
2022-08-26T13:12:28.699Z,26.57
2022-08-26T13:14:58.706Z,26.61
2022-08-26T13:17:27.005Z,26.44
2022-08-26T13:19:54.622Z,26.43
2022-08-26T13:22:24.910Z,26.36
2022-08-26T13:24:55.205Z,26.53
2022-08-26T13:27:26.008Z,26.52
2022-08-26T13:29:57.109Z,26.33
2022-08-26T13:32:27.593Z,26.41
2022-08-26T13:34:57.270Z,26.41
2022-08-26T13:37:34.376Z,26.21
2022-08-26T13:40:02.682Z,26.18
2022-08-26T13:42:31.109Z,26.41
2022-08-26T13:45:00.276Z,26.31
2022-08-26T13:47:28.536Z,26.28
2022-08-26T13:49:56.220Z,26.32
2022-08-26T13:52:27.239Z,26.04
2022-08-26T13:54:58.770Z,26.02
2022-08-26T13:57:27.888Z,26.04
2022-08-26T13:59:56.995Z,25.96
2022-08-26T14:02:26.439Z,26.21
2022-08-26T14:04:55.283Z,26.13
2022-08-26T14:07:23.316Z,26.21
2022-08-26T14:09:50.937Z,26.21
2022-08-26T14:12:18.825Z,26.26
2022-08-26T14:14:46.406Z,26.34
2022-08-26T14:17:17.966Z,26.39
2022-08-26T14:19:48.535Z,26.31
2022-08-26T14:22:17.977Z,26.41
2022-08-26T14:24:45.762Z,26.46
2022-08-26T14:27:14.134Z,26.39
2022-08-26T14:29:42.257Z,26.37
2022-08-26T14:32:13.286Z,26.37
2022-08-26T14:34:42.588Z,26.37
2022-08-26T14:37:15.194Z,26.18
2022-08-26T14:39:43.028Z,26.30
2022-08-26T14:42:11.120Z,26.17
2022-08-26T14:44:39.931Z,25.99
2022-08-26T14:47:07.806Z,26.11
2022-08-26T14:49:35.694Z,26.03
2022-08-26T14:52:03.590Z,25.80
2022-08-26T14:54:32.488Z,25.99
2022-08-26T14:57:03.539Z,25.90
2022-08-26T14:59:33.469Z,25.88
2022-08-26T15:02:01.505Z,25.93
2022-08-26T15:04:29.717Z,25.85
2022-08-26T15:06:59.566Z,25.99
2022-08-26T15:09:28.879Z,25.91
2022-08-26T15:11:57.922Z,25.88
2022-08-26T15:14:28.607Z,25.85
2022-08-26T15:16:58.752Z,25.91
2022-08-26T15:19:27.410Z,25.79
2022-08-26T15:21:55.533Z,25.74
2022-08-26T15:24:26.052Z,25.86
2022-08-26T15:26:54.191Z,25.85
2022-08-26T15:29:24.789Z,25.63
2022-08-26T15:31:57.196Z,25.52
2022-08-26T15:34:25.242Z,25.47
2022-08-26T15:36:52.782Z,25.48
2022-08-26T15:39:21.142Z,25.51
2022-08-26T15:41:48.737Z,25.53
2022-08-26T15:44:17.275Z,25.65
2022-08-26T15:46:46.442Z,25.61
2022-08-26T15:49:18.629Z,25.62
2022-08-26T15:51:49.072Z,25.42
2022-08-26T15:54:18.395Z,25.52
2022-08-26T15:56:49.053Z,25.28
2022-08-26T15:59:17.196Z,25.37
2022-08-26T16:01:46.596Z,25.32
2022-08-26T16:04:14.790Z,25.31
2022-08-26T16:06:43.475Z,25.15
2022-08-26T16:09:11.630Z,24.83
2022-08-26T16:11:39.454Z,24.99
2022-08-26T16:14:07.733Z,25.02
2022-08-26T16:16:39.157Z,25.00
2022-08-26T16:19:08.801Z,24.91
2022-08-26T16:21:37.167Z,24.91
2022-08-26T16:24:05.518Z,25.05
2022-08-26T16:26:35.138Z,24.76
2022-08-26T16:29:04.761Z,24.96
2022-08-26T16:31:32.390Z,24.92
2022-08-26T16:34:00.053Z,24.93
2022-08-26T16:36:29.029Z,24.97
2022-08-26T16:38:57.549Z,24.69
2022-08-26T16:41:26.784Z,24.78
2022-08-26T16:43:54.832Z,24.83
2022-08-26T16:46:25.521Z,24.82
2022-08-26T16:48:53.807Z,24.75
2022-08-26T16:51:23.886Z,24.53
2022-08-26T16:53:54.396Z,24.71
2022-08-26T16:56:33.461Z,24.54
2022-08-26T16:59:02.530Z,24.40
2022-08-26T17:01:30.328Z,24.40
2022-08-26T17:03:58.068Z,24.51
2022-08-26T17:06:25.702Z,24.39
2022-08-26T17:08:55.154Z,24.44
2022-08-26T17:11:22.739Z,24.55
2022-08-26T17:13:50.278Z,24.43
2022-08-26T17:16:17.910Z,24.59
2022-08-26T17:18:45.488Z,24.44
2022-08-26T17:21:14.378Z,24.22
2022-08-26T17:23:43.309Z,24.32
2022-08-26T17:26:12.890Z,24.09
2022-08-26T17:28:40.657Z,24.19
2022-08-26T17:31:09.007Z,24.10
2022-08-26T17:33:37.006Z,24.07
2022-08-26T17:36:06.872Z,24.20
2022-08-26T17:38:34.591Z,23.85
2022-08-26T17:41:02.161Z,24.09
2022-08-26T17:43:31.313Z,24.29
2022-08-26T17:46:06.662Z,24.31
2022-08-26T17:48:35.137Z,23.87
2022-08-26T17:51:07.613Z,23.93
2022-08-26T17:53:35.175Z,24.01
2022-08-26T17:56:02.729Z,24.13
2022-08-26T17:58:31.975Z,24.06
2022-08-26T18:01:02.249Z,23.98
2022-08-26T18:03:29.904Z,23.98
2022-08-26T18:05:57.569Z,23.88
2022-08-26T18:08:25.561Z,23.66
2022-08-26T18:10:53.512Z,23.71
2022-08-26T18:13:21.309Z,23.96
2022-08-26T18:15:50.258Z,24.08
2022-08-26T18:18:17.916Z,23.82
2022-08-26T18:20:46.201Z,23.76
2022-08-26T18:23:19.541Z,23.77
2022-08-26T18:25:47.071Z,23.70
2022-08-26T18:28:14.647Z,23.85
2022-08-26T18:30:43.194Z,23.69
2022-08-26T18:33:13.497Z,23.91
2022-08-26T18:35:42.048Z,23.85
2022-08-26T18:38:11.064Z,23.61
2022-08-26T18:40:39.801Z,23.60
2022-08-26T18:43:07.709Z,23.72
2022-08-26T18:45:35.789Z,23.67
2022-08-26T18:48:04.694Z,23.87
2022-08-26T18:50:33.753Z,23.73
2022-08-26T18:53:02.348Z,23.63
2022-08-26T18:55:29.901Z,23.66
2022-08-26T18:57:57.531Z,23.44
2022-08-26T19:00:25.136Z,23.55
2022-08-26T19:02:55.972Z,23.43
2022-08-26T19:05:25.372Z,23.58
2022-08-26T19:07:56.453Z,23.58
2022-08-26T19:10:24.494Z,23.43
2022-08-26T19:12:53.732Z,23.16
2022-08-26T19:15:22.999Z,23.02
2022-08-26T19:17:50.592Z,23.24
2022-08-26T19:20:18.150Z,23.41
2022-08-26T19:22:46.130Z,23.32
2022-08-26T19:25:15.518Z,23.26
2022-08-26T19:27:44.414Z,23.31
2022-08-26T19:30:12.261Z,23.33
2022-08-26T19:32:39.789Z,23.45
2022-08-26T19:35:08.480Z,23.33
2022-08-26T19:37:36.138Z,23.43
2022-08-26T19:40:04.913Z,23.60
2022-08-26T19:42:34.023Z,23.44
2022-08-26T19:45:20.225Z,23.20
2022-08-26T19:47:53.890Z,23.37
2022-08-26T19:50:22.140Z,23.37
2022-08-26T19:52:50.089Z,23.29
2022-08-26T19:55:18.560Z,23.29
2022-08-26T19:57:47.575Z,23.15
2022-08-26T20:00:19.189Z,23.03
2022-08-26T20:02:48.168Z,23.29
2022-08-26T20:05:17.408Z,23.28
2022-08-26T20:07:45.179Z,23.34
2022-08-26T20:10:14.057Z,23.03
2022-08-26T20:12:42.520Z,23.05
2022-08-26T20:15:13.551Z,23.26
2022-08-26T20:17:41.687Z,23.21
2022-08-26T20:20:33.201Z,23.26
2022-08-26T20:23:01.841Z,23.12
2022-08-26T20:25:29.421Z,23.12
2022-08-26T20:27:56.986Z,23.10
2022-08-26T20:30:25.868Z,22.97
2022-08-26T20:32:53.437Z,22.64
2022-08-26T20:35:21.261Z,22.97
2022-08-26T20:37:48.833Z,23.16
2022-08-26T20:40:16.535Z,22.95
2022-08-26T20:42:44.189Z,23.01
2022-08-26T20:45:12.229Z,23.15
2022-08-26T20:47:41.692Z,23.20
2022-08-26T20:50:10.006Z,23.21
2022-08-26T20:52:37.751Z,22.89
2022-08-26T20:55:05.968Z,22.83
2022-08-26T20:57:33.864Z,22.67
2022-08-26T21:00:02.151Z,22.89
2022-08-26T21:02:29.819Z,22.72
2022-08-26T21:04:59.117Z,22.88
2022-08-26T21:07:26.694Z,22.66
2022-08-26T21:09:55.196Z,22.73
2022-08-26T21:12:23.084Z,22.62
2022-08-26T21:14:50.685Z,22.53
2022-08-26T21:17:18.591Z,22.32
2022-08-26T21:19:46.119Z,22.21
2022-08-26T21:22:15.047Z,22.39
2022-08-26T21:24:42.568Z,22.10
2022-08-26T21:27:10.138Z,22.29
2022-08-26T21:29:37.945Z,22.33
2022-08-26T21:32:06.329Z,22.19
2022-08-26T21:34:33.981Z,21.82
2022-08-26T21:37:01.542Z,22.16
2022-08-26T21:39:34.923Z,22.15
2022-08-26T21:42:02.468Z,22.06
2022-08-26T21:44:30.031Z,21.99
2022-08-26T21:46:58.510Z,22.05
2022-08-26T21:49:26.124Z,21.92
2022-08-26T21:51:55.089Z,21.61
2022-08-26T21:54:23.486Z,21.58
2022-08-26T21:56:52.658Z,21.38
2022-08-26T21:59:20.274Z,21.48
2022-08-26T22:01:48.296Z,21.44
2022-08-26T22:04:16.550Z,21.28
2022-08-26T22:06:46.244Z,21.31
2022-08-26T22:09:15.221Z,21.49
2022-08-26T22:11:42.998Z,21.43
2022-08-26T22:14:12.419Z,21.61
2022-08-26T22:16:40.057Z,21.47
2022-08-26T22:19:08.177Z,21.60
2022-08-26T22:21:41.684Z,21.52
2022-08-26T22:24:12.037Z,21.23
2022-08-26T22:26:39.929Z,21.14
2022-08-26T22:29:07.700Z,21.10
2022-08-26T22:31:38.021Z,20.77
2022-08-26T22:34:07.704Z,20.73
2022-08-26T22:36:42.907Z,20.79
2022-08-26T22:39:12.552Z,20.94
2022-08-26T22:41:40.220Z,20.76
2022-08-26T22:44:07.749Z,20.59
2022-08-26T22:46:38.510Z,20.68
2022-08-26T22:49:06.558Z,21.08
2022-08-26T22:51:34.445Z,21.20
2022-08-26T22:54:01.973Z,21.20
2022-08-26T22:56:29.893Z,20.89
2022-08-26T22:58:57.442Z,20.58
2022-08-26T23:01:25.019Z,20.90
2022-08-26T23:03:54.120Z,20.90
2022-08-26T23:06:21.790Z,20.76
2022-08-26T23:08:49.326Z,20.92
2022-08-26T23:11:17.284Z,20.86
2022-08-26T23:13:44.868Z,20.71
2022-08-26T23:16:13.489Z,20.72
2022-08-26T23:18:42.770Z,20.61
2022-08-26T23:21:11.828Z,20.66
2022-08-26T23:23:39.379Z,20.68
2022-08-26T23:26:07.908Z,20.86
2022-08-26T23:28:36.253Z,20.89
2022-08-26T23:31:04.191Z,20.81
2022-08-26T23:33:45.832Z,20.80
2022-08-26T23:36:17.889Z,20.69
2022-08-26T23:38:48.562Z,20.90
2022-08-26T23:41:20.739Z,20.84
2022-08-26T23:43:48.400Z,20.69
2022-08-26T23:46:16.083Z,20.85
2022-08-26T23:48:43.716Z,21.01
2022-08-26T23:51:29.128Z,21.01
2022-08-26T23:53:58.491Z,20.67
2022-08-26T23:56:26.715Z,20.69
2022-08-26T23:58:54.523Z,20.72
